Time;durP1;ratioP1;P1;durP2;ratioP2;P2;SDS_P1;SDS_P2;PMS_P1;PMS_P2;Temp;Humidity;BMP_temperature;BMP_pressure;BME280_temperature;BME280_humidity;BME280_pressure;Samples;Min_cycle;Max_cycle;Signal;HPM_P1;HPM_P2
2022/06/24 00:02:28;;;;;;;5.18;3.63;;;18.50;99.90;;;19.04;100.00;97512.69;5191730;28;20201;-63
2022/06/24 00:05:09;;;;;;;6.72;3.53;;;18.50;99.90;;;19.06;100.00;97508.41;5196958;28;20225;-63
2022/06/24 00:07:46;;;;;;;4.20;3.00;;;18.50;99.90;;;19.08;100.00;97501.50;5197727;28;20275;-62
2022/06/24 00:10:24;;;;;;;6.15;3.25;;;18.50;99.90;;;19.06;100.00;97493.72;5196123;28;20721;-61
2022/06/24 00:12:58;;;;;;;5.78;3.45;;;18.50;99.90;;;19.05;100.00;97489.38;5198355;28;20205;-62
2022/06/24 00:15:34;;;;;;;7.38;3.55;;;18.50;99.90;;;18.98;100.00;97481.50;5199975;28;20244;-62
2022/06/24 00:18:16;;;;;;;8.15;4.00;;;18.40;99.90;;;18.99;100.00;97478.03;5199324;28;20703;-62
2022/06/24 00:20:51;;;;;;;7.53;3.90;;;18.50;99.90;;;18.99;100.00;97476.31;5198135;28;20241;-62
2022/06/24 00:23:24;;;;;;;6.85;3.30;;;18.40;99.90;;;18.96;100.00;97470.22;5200802;28;20236;-62
2022/06/24 00:25:59;;;;;;;5.47;3.25;;;18.30;99.90;;;18.95;100.00;97471.94;5199427;28;20875;-62
2022/06/24 00:28:32;;;;;;;5.72;3.70;;;18.40;99.90;;;18.96;100.00;97459.84;5198705;28;20256;-62
2022/06/24 00:31:07;;;;;;;4.70;3.40;;;18.50;99.90;;;18.90;100.00;97463.22;5195120;28;20233;-62
2022/06/24 00:33:45;;;;;;;5.32;4.28;;;18.30;99.90;;;18.92;100.00;97456.34;5199377;28;20208;-62
2022/06/24 00:36:19;;;;;;;7.05;3.63;;;18.40;99.90;;;18.95;100.00;97455.53;5194748;28;20267;-62
2022/06/24 00:38:53;;;;;;;4.55;4.13;;;18.40;99.90;;;18.98;100.00;97445.22;5198064;28;20281;-62
2022/06/24 00:41:28;;;;;;;6.07;3.90;;;18.40;99.90;;;19.03;100.00;97428.00;5196118;28;20729;-63
2022/06/24 00:44:03;;;;;;;7.55;3.88;;;18.50;99.90;;;19.10;100.00;97419.50;5198182;28;20233;-62
2022/06/24 00:46:40;;;;;;;4.80;3.30;;;18.50;99.90;;;19.09;100.00;97407.41;5199164;28;20206;-63
2022/06/24 00:49:16;;;;;;;6.18;3.45;;;18.50;99.90;;;18.97;100.00;97407.19;5195209;28;20309;-62
2022/06/24 00:51:49;;;;;;;6.15;3.55;;;18.30;99.90;;;18.97;100.00;97414.97;5199835;28;20239;-63
2022/06/24 00:54:25;;;;;;;4.93;3.17;;;18.30;99.90;;;18.98;100.00;97414.16;5201101;28;20225;-63
2022/06/24 00:56:59;;;;;;;6.57;4.45;;;18.40;99.90;;;18.95;100.00;97409.78;5198918;28;20240;-63
2022/06/24 00:59:35;;;;;;;6.35;4.13;;;18.40;99.90;;;18.94;100.00;97408.00;5195820;28;20221;-63
2022/06/24 01:02:09;;;;;;;5.57;3.53;;;18.40;99.90;;;18.90;100.00;97420.06;5198707;28;20198;-63
2022/06/24 01:04:42;;;;;;;5.22;3.80;;;18.30;99.90;;;18.86;100.00;97410.50;5203746;28;20233;-63
2022/06/24 01:07:16;;;;;;;5.15;3.70;;;18.30;99.90;;;18.87;100.00;97414.81;5204915;28;20252;-62
2022/06/24 01:09:49;;;;;;;6.88;3.60;;;18.20;99.90;;;18.72;100.00;97411.94;5201809;28;20230;-62
2022/06/24 01:12:23;;;;;;;6.13;4.22;;;18.10;99.90;;;18.76;100.00;97408.56;5200824;28;20240;-61
2022/06/24 01:14:56;;;;;;;6.40;4.38;;;18.20;99.90;;;18.84;100.00;97409.59;5202408;28;20202;-63
2022/06/24 01:17:30;;;;;;;8.43;4.60;;;18.20;99.90;;;18.86;100.00;97402.72;5202095;28;20241;-63
2022/06/24 01:20:03;;;;;;;10.35;5.28;;;18.20;99.90;;;18.86;100.00;97413.09;5197352;28;20206;-63
2022/06/24 01:22:38;;;;;;;6.55;4.68;;;18.30;99.90;;;18.87;100.00;97417.41;5202049;28;20202;-63
2022/06/24 01:25:12;;;;;;;8.13;4.88;;;18.30;99.90;;;18.86;100.00;97420.00;5201417;28;20260;-63
2022/06/24 01:27:45;;;;;;;6.28;4.22;;;18.20;99.90;;;18.82;100.00;97415.59;5201426;28;20232;-63
2022/06/24 01:30:18;;;;;;;9.02;4.35;;;18.10;99.90;;;18.82;100.00;97413.84;5202182;28;20248;-63
2022/06/24 01:32:51;;;;;;;5.72;4.40;;;18.20;99.90;;;18.87;100.00;97417.41;5202576;28;20236;-63
2022/06/24 01:35:25;;;;;;;6.05;4.10;;;18.30;99.90;;;18.86;100.00;97401.88;5201209;28;20657;-63
2022/06/24 01:37:59;;;;;;;7.00;4.70;;;18.20;99.90;;;18.81;100.00;97396.59;5200821;28;20264;-63
2022/06/24 01:40:32;;;;;;;7.93;4.45;;;18.20;99.90;;;18.83;100.00;97394.03;5199396;28;20683;-63
2022/06/24 01:43:06;;;;;;;7.88;4.10;;;18.20;99.90;;;18.73;100.00;97392.09;5202917;28;20737;-62
2022/06/24 01:45:39;;;;;;;6.38;3.70;;;18.00;99.90;;;18.62;100.00;97385.00;5202574;28;20217;-63
2022/06/24 01:48:12;;;;;;;5.82;3.97;;;17.90;99.90;;;18.57;100.00;97388.34;5198243;28;20740;-63
2022/06/24 01:50:45;;;;;;;6.07;3.75;;;17.90;99.90;;;18.60;100.00;97376.34;5202107;28;20244;-63
2022/06/24 01:53:20;;;;;;;5.57;3.53;;;17.90;99.90;;;18.63;100.00;97385.91;5199679;28;20198;-63
2022/06/24 01:55:53;;;;;;;6.20;3.72;;;18.00;99.90;;;18.53;100.00;97376.22;5200357;28;20189;-63
2022/06/24 01:58:27;;;;;;;7.78;4.13;;;17.80;99.90;;;18.57;100.00;97376.31;5195913;28;20713;-63
2022/06/24 02:01:00;;;;;;;6.65;3.92;;;17.90;99.90;;;18.53;100.00;97371.91;5199168;28;20655;-63
2022/06/24 02:03:35;;;;;;;7.25;4.65;;;17.80;99.90;;;18.56;100.00;97378.84;5203246;28;20206;-63
2022/06/24 02:06:10;;;;;;;7.25;4.10;;;17.90;99.90;;;18.60;100.00;97388.41;5199275;28;20307;-62
2022/06/24 02:08:44;;;;;;;5.32;4.13;;;17.90;99.90;;;18.62;100.00;97397.94;5197733;28;20583;-63
2022/06/24 02:14:10;;;;;;;4.45;4.05;;;18.00;99.90;;;18.62;100.00;97389.31;5199824;28;20190;-63
2022/06/24 02:16:43;;;;;;;6.97;4.45;;;17.90;99.90;;;18.65;100.00;97390.22;5202028;28;20715;-63
2022/06/24 02:19:16;;;;;;;4.75;4.35;;;18.00;99.90;;;18.70;100.00;97387.72;5199773;28;20726;-62
2022/06/24 02:21:49;;;;;;;4.97;4.20;;;18.00;99.90;;;18.75;100.00;97377.50;5198084;28;20197;-62
2022/06/24 02:24:24;;;;;;;8.10;4.30;;;18.10;99.90;;;18.72;100.00;97375.69;5193487;28;20625;-63
2022/06/24 02:26:57;;;;;;;5.03;4.03;;;18.00;99.90;;;18.58;100.00;97378.03;5199030;28;20248;-62
2022/06/24 02:29:30;;;;;;;4.07;3.70;;;17.80;99.90;;;18.50;100.00;97373.56;5196725;28;20785;-62
2022/06/24 02:32:04;;;;;;;5.57;4.20;;;17.70;99.90;;;18.49;100.00;97380.47;5203458;28;20202;-63
2022/06/24 02:34:37;;;;;;;7.43;4.43;;;17.70;99.90;;;18.53;100.00;97376.22;5203057;28;20226;-63
2022/06/24 02:37:10;;;;;;;6.28;4.55;;;17.90;99.90;;;18.59;100.00;97378.91;5201035;28;20283;-62
2022/06/24 02:39:44;;;;;;;4.82;4.05;;;17.90;99.90;;;18.63;100.00;97365.19;5200543;28;20635;-63
2022/06/24 02:42:18;;;;;;;5.28;4.63;;;17.90;99.90;;;18.65;100.00;97364.34;5197672;28;20252;-63
2022/06/24 02:44:51;;;;;;;6.82;4.60;;;18.00;99.90;;;18.69;100.00;97360.09;5203111;28;20660;-62
2022/06/24 02:47:24;;;;;;;7.22;4.65;;;18.00;99.90;;;18.65;100.00;97364.34;5200916;28;20312;-62
2022/06/24 02:49:57;;;;;;;5.07;4.00;;;18.00;99.90;;;18.61;100.00;97352.19;5200284;28;20253;-62
2022/06/24 02:52:30;;;;;;;4.60;4.10;;;17.90;99.90;;;18.53;100.00;97360.69;5197340;28;20675;-62
2022/06/24 02:55:06;;;;;;;7.50;4.10;;;17.70;99.90;;;18.54;100.00;97350.38;5199752;28;20217;-62
2022/06/24 02:57:40;;;;;;;5.65;3.85;;;17.70;99.90;;;18.45;100.00;97350.19;5202962;28;20683;-62
2022/06/24 03:00:14;;;;;;;5.15;3.92;;;17.60;99.90;;;18.44;100.00;97343.28;5199386;28;20385;-62
2022/06/24 03:02:47;;;;;;;5.07;3.85;;;17.70;99.90;;;18.46;100.00;97347.63;5201635;28;20402;-62
2022/06/24 03:05:21;;;;;;;6.60;4.05;;;17.70;99.90;;;18.50;100.00;97343.38;5198311;28;20237;-62
2022/06/24 03:07:55;;;;;;;5.53;4.10;;;17.80;99.90;;;18.54;100.00;97346.88;5196039;28;20654;-62
2022/06/24 03:10:29;;;;;;;5.35;4.32;;;17.80;99.90;;;18.54;100.00;97340.00;5200592;28;20689;-62
2022/06/24 03:13:03;;;;;;;6.00;4.57;;;17.80;99.90;;;18.55;100.00;97335.69;5201232;28;20296;-62
2022/06/24 03:15:37;;;;;;;6.80;5.05;;;17.80;99.90;;;18.55;100.00;97340.88;5201471;28;20248;-62
2022/06/24 03:18:11;;;;;;;5.22;4.60;;;17.80;99.90;;;18.52;100.00;97346.00;5199464;28;20222;-62
2022/06/24 03:20:44;;;;;;;5.07;4.50;;;17.70;99.90;;;18.51;100.00;97336.47;5200647;28;20267;-62
2022/06/24 03:23:18;;;;;;;4.32;3.92;;;17.80;99.90;;;18.55;100.00;97344.34;5195866;28;20208;-62
2022/06/24 03:25:53;;;;;;;5.82;4.82;;;17.80;99.90;;;18.54;100.00;97344.28;5200701;28;20265;-62
2022/06/24 03:28:26;;;;;;;7.18;5.38;;;17.90;99.90;;;18.58;100.00;97343.50;5199929;28;20225;-61
2022/06/24 03:30:59;;;;;;;5.45;4.55;;;17.90;99.90;;;18.60;100.00;97354.75;5197424;28;20625;-62
2022/06/24 03:33:33;;;;;;;5.38;4.35;;;17.80;99.90;;;18.59;100.00;97353.00;5200778;28;20237;-62
2022/06/24 03:36:10;;;;;;;7.28;4.97;;;17.80;99.90;;;18.58;100.00;97359.06;5198052;28;20226;-62
2022/06/24 03:38:43;;;;;;;5.00;4.38;;;17.90;99.90;;;18.50;100.00;97358.03;5198844;28;20304;-63
2022/06/24 03:41:19;;;;;;;7.47;4.60;;;17.70;99.90;;;18.45;100.00;97361.41;5201248;28;20204;-62
2022/06/24 03:43:52;;;;;;;6.03;5.43;;;17.60;99.90;;;18.43;100.00;97350.16;5201170;28;20205;-61
2022/06/24 03:46:25;;;;;;;6.47;4.72;;;17.60;99.90;;;18.46;100.00;97357.97;5199835;28;20646;-62
2022/06/24 03:48:58;;;;;;;7.15;4.70;;;17.70;99.90;;;18.45;100.00;97353.63;5196377;28;20460;-62
2022/06/24 03:51:31;;;;;;;8.38;4.80;;;17.70;99.90;;;18.45;100.00;97358.81;5200195;28;20629;-62
2022/06/24 03:54:05;;;;;;;6.82;5.68;;;17.70;99.90;;;18.45;100.00;97356.22;5196901;28;20245;-62
2022/06/24 03:56:39;;;;;;;6.82;5.70;;;17.80;99.90;;;18.50;100.00;97347.69;5204507;28;20197;-62
2022/06/24 03:59:17;;;;;;;6.05;4.60;;;17.80;99.90;;;18.48;100.00;97344.19;5197544;28;20225;-62
2022/06/24 04:01:50;;;;;;;4.70;4.28;;;17.80;99.90;;;18.45;100.00;97345.88;5200107;28;20202;-62
2022/06/24 04:04:23;;;;;;;4.40;3.90;;;17.70;99.90;;;18.45;100.00;97343.28;5200684;28;20198;-62
2022/06/24 04:06:56;;;;;;;4.38;3.83;;;17.70;99.90;;;18.44;100.00;97338.97;5197035;28;20711;-62
2022/06/24 04:09:30;;;;;;;5.30;3.90;;;17.70;99.90;;;18.42;100.00;97348.41;5199494;28;20667;-62
2022/06/24 04:12:05;;;;;;;4.50;4.07;;;17.70;99.90;;;18.45;100.00;97351.03;5197000;28;20199;-62
2022/06/24 04:17:29;;;;;;;4.88;4.03;;;17.70;99.90;;;18.44;100.00;97357.06;5199366;28;20213;-62
2022/06/24 04:20:02;;;;;;;4.05;3.63;;;17.70;99.90;;;18.44;100.00;97354.50;5194976;28;20218;-62
2022/06/24 04:22:36;;;;;;;4.40;4.00;;;17.60;99.90;;;18.41;100.00;97358.75;5197160;28;20202;-62
2022/06/24 04:25:11;;;;;;;4.35;3.92;;;17.50;99.90;;;18.35;100.00;97349.16;5194807;28;20630;-62
2022/06/24 04:27:45;;;;;;;6.00;4.22;;;17.50;99.90;;;18.33;100.00;97353.41;5197497;28;20213;-62
2022/06/24 04:30:19;;;;;;;4.15;3.75;;;17.50;99.90;;;18.33;100.00;97345.66;5201292;28;20242;-61
2022/06/24 04:32:52;;;;;;;4.50;4.10;;;17.50;99.90;;;18.37;100.00;97347.47;5196460;28;20206;-60
2022/06/24 04:35:25;;;;;;;6.93;4.20;;;17.60;99.90;;;18.38;100.00;97349.22;5194807;28;20201;-62
2022/06/24 04:37:58;;;;;;;6.63;3.97;;;17.60;99.90;;;18.43;100.00;97342.41;5199522;28;20233;-61
2022/06/24 04:40:31;;;;;;;5.65;4.18;;;17.60;99.90;;;18.42;100.00;97340.63;5198567;28;20240;-61
2022/06/24 04:43:07;;;;;;;5.65;4.15;;;17.60;99.90;;;18.43;100.00;97332.06;5202596;28;20198;-61
2022/06/24 04:45:41;;;;;;;5.97;4.13;;;17.60;99.90;;;18.35;100.00;97336.22;5202493;28;20198;-60
2022/06/24 04:48:14;;;;;;;4.63;3.90;;;17.50;99.90;;;18.42;100.00;97334.59;5201304;28;20649;-62
2022/06/24 04:50:47;;;;;;;4.43;3.60;;;17.50;99.90;;;18.35;100.00;97345.69;5194914;28;20222;-61
2022/06/24 04:53:20;;;;;;;6.45;4.07;;;17.40;99.90;;;18.36;100.00;97335.34;5198118;28;20213;-60
2022/06/24 04:55:53;;;;;;;3.55;3.25;;;17.40;99.90;;;18.26;100.00;97338.63;5200554;28;20233;-61
2022/06/24 04:58:28;;;;;;;4.80;3.80;;;17.40;99.90;;;18.31;100.00;97344.75;5198970;28;20214;-60
2022/06/24 05:01:01;;;;;;;4.30;3.90;;;17.40;99.90;;;18.23;100.00;97341.19;5199774;28;20294;-61
2022/06/24 05:03:34;;;;;;;8.50;4.60;;;17.40;99.90;;;18.29;100.00;97336.09;5196503;28;20237;-61
2022/06/24 05:06:07;;;;;;;5.93;4.53;;;17.50;99.90;;;18.36;100.00;97337.94;5199475;28;20248;-60
2022/06/24 05:08:41;;;;;;;6.03;4.65;;;17.60;99.90;;;18.34;100.00;97342.25;5198554;28;20226;-59
2022/06/24 05:11:14;;;;;;;6.72;5.10;;;17.60;99.90;;;18.50;100.00;97343.38;5195821;28;20233;-59
2022/06/24 05:13:48;;;;;;;8.13;5.15;;;17.70;99.90;;;18.82;100.00;97336.16;5192812;28;20651;-61
2022/06/24 05:16:22;;;;;;;5.43;4.78;;;18.10;99.90;;;19.22;100.00;97334.19;5199396;28;20205;-60
2022/06/24 05:19:11;;;;;;;7.47;5.70;;;18.40;99.90;;;19.86;100.00;97339.41;5202515;28;20625;-61
2022/06/24 05:21:45;;;;;;;6.72;6.22;;;18.80;99.90;;;20.06;100.00;97334.47;5202497;28;20252;-61
2022/06/24 05:24:18;;;;;;;6.43;5.82;;;19.00;99.90;;;20.38;100.00;97341.72;5203051;28;20197;-61
2022/06/24 05:26:51;;;;;;;5.18;4.65;;;19.30;99.90;;;20.60;100.00;97335.00;5196174;28;20236;-61
2022/06/24 05:29:26;;;;;;;5.60;4.00;;;19.60;99.90;;;21.01;100.00;97330.16;5200827;28;20222;-61
2022/06/24 05:31:59;;;;;;;6.45;3.78;;;19.90;99.90;;;21.52;100.00;97323.59;5202224;28;20233;-61
2022/06/24 05:34:32;;;;;;;4.93;3.63;;;20.30;99.90;;;21.82;97.32;97325.44;5205737;28;20663;-61
2022/06/24 05:37:05;;;;;;;3.72;3.10;;;20.60;99.90;;;21.91;91.44;97324.59;5201857;28;20236;-61
2022/06/24 05:39:39;;;;;;;3.90;3.40;;;20.80;99.90;;;22.24;91.55;97328.22;5203000;28;20585;-61
2022/06/24 05:42:12;;;;;;;5.50;3.80;;;20.90;99.90;;;22.41;89.14;97313.50;5197351;28;20240;-61
2022/06/24 05:44:46;;;;;;;4.75;3.88;;;20.90;99.90;;;22.46;88.27;97321.28;5200440;28;20198;-61
2022/06/24 05:47:19;;;;;;;5.38;3.90;;;21.00;99.90;;;22.54;86.75;97319.56;5197027;28;20707;-61
2022/06/24 05:49:52;;;;;;;4.28;3.88;;;21.10;99.90;;;22.88;87.76;97322.19;5198382;28;20218;-61
2022/06/24 05:55:13;;;;;;;8.95;7.88;;;21.40;99.90;;;22.61;84.59;97318.72;5200049;28;20426;-62
2022/06/24 05:57:46;;;;;;;8.55;6.97;;;21.20;99.90;;;22.76;86.17;97320.47;5200870;28;20217;-61
2022/06/24 06:00:20;;;;;;;6.45;5.93;;;21.30;99.90;;;23.07;85.78;97307.47;5199602;28;20197;-61
2022/06/24 06:02:53;;;;;;;6.15;5.05;;;21.50;99.90;;;23.06;82.49;97310.91;5199227;28;20247;-62
2022/06/24 06:05:29;;;;;;;4.82;4.53;;;21.50;99.90;;;23.20;83.85;97309.16;5195862;28;20272;-62
2022/06/24 06:08:02;;;;;;;4.75;3.40;;;21.50;99.90;;;23.57;83.38;97304.69;5196241;28;20733;-62
2022/06/24 06:10:37;;;;;;;3.95;3.47;;;21.70;99.90;;;23.65;80.88;97294.25;5198530;28;20198;-62
2022/06/24 06:13:10;;;;;;;4.97;2.95;;;22.00;99.90;;;24.01;81.85;97293.25;5201895;28;20916;-62
2022/06/24 06:15:46;;;;;;;6.05;3.20;;;22.30;99.90;;;24.19;76.07;97288.81;5205282;28;20201;-62
2022/06/24 06:18:19;;;;;;;5.60;3.30;;;22.30;99.90;;;24.27;78.46;97294.84;5197332;28;20224;-62
2022/06/24 06:20:52;;;;;;;3.83;2.63;;;22.40;99.90;;;23.76;78.94;97296.84;5196886;28;20202;-62
2022/06/24 06:23:26;;;;;;;6.57;2.90;;;22.30;99.90;;;23.83;79.90;97302.03;5202359;28;20198;-62
2022/06/24 06:26:03;;;;;;;5.93;2.88;;;22.30;99.90;;;23.74;79.06;97299.47;5203043;28;20233;-62
2022/06/24 06:28:37;;;;;;;3.90;2.85;;;22.30;99.90;;;24.40;80.09;97298.22;5204398;28;20217;-64
2022/06/24 06:31:12;;;;;;;4.30;3.08;;;22.70;99.90;;;25.05;79.33;97296.00;5196132;28;20256;-63
2022/06/24 06:33:45;;;;;;;4.82;3.00;;;23.40;99.90;;;25.47;73.90;97299.97;5191333;28;20669;-63
2022/06/24 06:36:18;;;;;;;6.22;2.92;;;23.90;99.90;;;26.13;70.99;97300.94;5205742;28;20240;-64
2022/06/24 06:38:51;;;;;;;6.43;2.90;;;24.30;99.90;;;25.92;70.27;97297.69;5195742;28;20276;-64
2022/06/24 06:41:25;;;;;;;5.88;2.80;;;24.10;99.90;;;25.71;69.83;97297.94;5202641;28;20223;-63
2022/06/24 06:43:58;;;;;;;4.05;2.53;;;23.70;99.90;;;25.31;71.66;97303.63;5200207;28;20248;-64
2022/06/24 06:46:32;;;;;;;5.53;3.25;;;23.20;99.90;;;25.04;74.26;97295.16;5196506;28;20197;-62
2022/06/24 06:49:05;;;;;;;4.32;2.65;;;23.20;99.90;;;24.81;73.57;97291.84;5194704;28;20776;-64
2022/06/24 06:51:38;;;;;;;6.72;3.05;;;23.30;99.90;;;25.07;72.47;97299.47;5200076;28;20674;-63
2022/06/24 06:54:12;;;;;;;6.43;3.00;;;23.50;99.90;;;25.63;69.97;97301.50;5204812;28;20197;-63
2022/06/24 06:56:45;;;;;;;6.80;2.60;;;24.10;99.90;;;26.43;68.99;97300.47;5196232;28;20198;-63
2022/06/24 06:59:18;;;;;;;4.40;2.58;;;24.80;99.90;;;26.68;66.98;97290.50;5198996;28;20241;-63
2022/06/24 07:01:53;;;;;;;5.65;2.72;;;25.10;99.90;;;27.07;67.00;97292.47;5205180;28;20629;-64
2022/06/24 07:04:26;;;;;;;4.07;2.95;;;25.30;99.90;;;27.50;64.95;97289.06;5193498;28;20288;-63
2022/06/24 07:06:59;;;;;;;5.68;2.50;;;25.60;99.90;;;27.88;65.36;97288.34;5193500;28;20201;-63
2022/06/24 07:09:32;;;;;;;4.70;2.90;;;25.80;99.90;;;27.52;64.30;97295.16;5199603;28;20260;-64
2022/06/24 07:12:07;;;;;;;4.60;2.78;;;25.50;99.90;;;27.50;64.76;97289.97;5195559;28;20256;-63
2022/06/24 07:14:42;;;;;;;4.93;3.13;;;25.50;99.90;;;26.87;64.05;97296.31;5189041;28;20224;-63
2022/06/24 07:17:21;;;;;;;4.60;2.45;;;25.40;99.90;;;27.55;62.79;97289.84;5198715;28;20567;-63
2022/06/24 07:19:55;;;;;;;4.60;2.72;;;25.70;99.90;;;27.72;62.35;97286.88;5192562;28;20208;-63
2022/06/24 07:22:31;;;;;;;5.53;2.67;;;26.10;99.90;;;27.82;61.67;97289.34;5200953;28;20232;-61
2022/06/24 07:25:07;;;;;;;6.88;3.08;;;26.00;99.90;;;28.06;59.48;97292.34;5195846;28;20271;-62
2022/06/24 07:27:40;;;;;;;5.82;2.90;;;25.90;99.90;;;27.37;61.15;97289.31;5191747;28;20279;-61
2022/06/24 07:30:14;;;;;;;4.75;2.78;;;25.60;99.90;;;27.76;64.87;97286.81;5198791;28;20198;-62
2022/06/24 07:32:49;;;;;;;5.43;2.90;;;25.60;99.90;;;28.34;59.84;97286.47;5193483;28;20618;-62
2022/06/24 07:35:22;;;;;;;4.50;2.90;;;26.00;99.90;;;28.81;56.55;97285.34;5195402;28;20204;-61
2022/06/24 07:38:15;;;;;;;4.35;2.55;;;26.70;99.90;;;29.57;58.84;97290.38;5197356;28;20309;-62
2022/06/24 07:40:51;;;;;;;4.07;2.60;;;27.30;99.90;;;29.87;56.28;97282.53;5195238;28;20259;-61
2022/06/24 07:43:24;;;;;;;4.72;2.63;;;27.60;99.90;;;30.28;54.22;97278.69;5189279;28;20202;-62
2022/06/24 07:45:58;;;;;;;4.07;2.50;;;28.00;99.90;;;30.05;52.96;97279.38;5195813;28;20233;-62
2022/06/24 07:48:32;;;;;;;3.78;2.65;;;27.70;99.90;;;29.93;52.08;97277.06;5195994;28;20256;-62
2022/06/24 07:51:11;;;;;;;7.78;2.70;;;27.60;99.90;;;29.57;53.77;97273.72;5195791;28;20202;-61
2022/06/24 07:53:46;;;;;;;5.97;2.50;;;27.30;99.90;;;29.57;52.51;97271.94;5196333;28;20755;-62
2022/06/24 07:59:13;;;;;;;4.25;2.33;;;27.20;99.90;;;29.54;53.14;97279.94;5197398;28;20575;-62
2022/06/24 08:01:47;;;;;;;3.53;2.10;;;27.30;99.90;;;29.68;53.18;97273.47;5197179;28;20198;-62
2022/06/24 08:04:22;;;;;;;5.85;2.58;;;27.40;99.90;;;29.58;52.28;97280.72;5194241;28;20213;-61
2022/06/24 08:06:55;;;;;;;3.78;2.35;;;27.20;99.90;;;29.01;52.03;97281.34;5197223;28;20228;-62
2022/06/24 08:09:32;;;;;;;4.13;2.33;;;26.70;99.90;;;28.35;54.64;97277.66;5197946;28;20643;-62
2022/06/24 08:12:07;;;;;;;4.88;2.63;;;26.10;99.90;;;27.91;55.98;97276.91;5201129;28;20684;-62
2022/06/24 08:14:40;;;;;;;2.47;2.00;;;25.90;99.90;;;28.60;54.69;97270.09;5200862;28;20255;-62
2022/06/24 08:17:13;;;;;;;4.28;2.40;;;26.50;99.90;;;29.42;51.97;97269.75;5200724;28;20259;-61
2022/06/24 08:19:47;;;;;;;3.88;2.25;;;27.40;99.90;;;30.18;48.82;97265.81;5198787;28;20255;-62
2022/06/24 08:22:21;;;;;;;4.00;2.33;;;28.00;98.70;;;30.37;48.26;97269.63;5196325;28;20205;-62
2022/06/24 08:24:54;;;;;;;3.40;2.22;;;28.20;98.10;;;30.58;48.69;97259.28;5201297;28;20197;-62
2022/06/24 08:27:47;;;;;;;2.75;1.90;;;28.50;98.60;;;30.79;47.73;97256.00;5203305;28;20701;-62
2022/06/24 08:30:20;;;;;;;4.65;2.20;;;28.70;97.10;;;30.96;46.64;97258.03;5200113;28;20753;-62
2022/06/24 08:32:53;;;;;;;3.42;2.10;;;28.90;96.00;;;30.73;45.32;97246.47;5198258;28;20205;-62
2022/06/24 08:35:28;;;;;;;4.53;2.33;;;29.00;95.20;;;30.77;47.15;97244.59;5202224;28;20260;-61
2022/06/24 08:38:02;;;;;;;3.17;2.00;;;29.20;95.80;;;30.62;44.84;97242.44;5198562;28;20227;-62
2022/06/24 08:40:35;;;;;;;4.03;2.65;;;29.00;94.10;;;30.33;46.46;97231.06;5199238;28;20228;-62
2022/06/24 08:43:10;;;;;;;4.07;2.35;;;28.90;94.70;;;30.30;44.89;97233.78;5198584;28;20604;-62
2022/06/24 08:45:43;;;;;;;4.53;2.20;;;28.60;94.60;;;29.42;45.75;97225.00;5199535;28;20227;-61
2022/06/24 08:48:17;;;;;;;3.58;2.28;;;27.70;94.70;;;28.85;49.27;97241.41;5201061;28;20757;-61
2022/06/24 08:50:52;;;;;;;3.97;2.20;;;27.10;96.90;;;28.67;49.93;97237.47;5201170;28;20201;-62
2022/06/24 08:53:28;;;;;;;2.60;2.30;;;26.60;96.70;;;28.34;50.25;97233.88;5195919;28;20194;-61
2022/06/24 08:56:02;;;;;;;3.67;2.20;;;26.40;97.60;;;27.97;51.62;97235.59;5195578;28;20225;-63
2022/06/24 08:58:36;;;;;;;3.20;1.90;;;26.10;98.00;;;27.56;53.29;97231.22;5199981;28;20780;-62
2022/06/24 09:01:16;;;;;;;3.25;2.28;;;26.00;99.00;;;27.30;53.36;97224.72;5195982;28;20206;-61
2022/06/24 09:03:50;;;;;;;3.63;2.30;;;25.70;99.50;;;27.44;53.56;97226.19;5203332;28;20204;-61
2022/06/24 09:06:39;;;;;;;4.30;2.05;;;25.70;99.60;;;27.38;52.55;97228.03;5199588;28;20202;-61
2022/06/24 09:09:13;;;;;;;4.32;2.42;;;25.70;98.70;;;27.28;53.78;97223.88;5201636;28;20710;-61
2022/06/24 09:11:55;;;;;;;3.05;2.20;;;25.70;99.60;;;27.29;54.67;97222.13;5202144;28;20204;-62
2022/06/24 09:14:45;;;;;;;2.72;2.22;;;25.70;99.70;;;27.31;52.45;97222.97;5201483;28;20217;-61
2022/06/24 09:17:28;;;;;;;2.97;2.05;;;25.70;98.10;;;27.29;52.71;97225.59;5195800;28;20409;-62
2022/06/24 09:20:10;;;;;;;3.58;2.20;;;25.70;98.80;;;27.29;51.88;97230.84;5197979;28;20224;-60
2022/06/24 09:23:08;;;;;;;2.78;2.10;;;25.70;98.20;;;27.23;52.01;97230.97;5200311;28;20620;-60
2022/06/24 09:25:44;;;;;;;3.67;2.10;;;25.60;98.00;;;27.17;52.55;97225.84;5203577;28;20706;-61
2022/06/24 09:28:24;;;;;;;4.75;2.25;;;25.70;98.40;;;27.21;52.40;97219.63;5203712;28;20252;-62
2022/06/24 09:31:02;;;;;;;4.13;2.58;;;25.70;98.10;;;27.51;50.30;97209.44;5202355;28;20220;-62
2022/06/24 09:33:37;;;;;;;2.95;2.10;;;25.90;96.80;;;27.70;51.26;97213.41;5200212;28;20212;-62
2022/06/24 09:36:12;;;;;;;3.50;2.38;;;26.30;97.20;;;27.81;50.03;97211.44;5199472;28;20197;-62
2022/06/24 09:39:00;;;;;;;2.85;2.28;;;26.40;96.50;;;28.04;50.19;97217.91;5196334;28;20221;-61
2022/06/24 09:41:44;;;;;;;3.25;2.75;;;26.60;96.70;;;28.46;48.52;97209.94;5194524;28;20663;-62
2022/06/24 09:44:19;;;;;;;3.10;2.30;;;27.20;95.40;;;28.69;47.56;97202.34;5192590;28;20193;-62
2022/06/24 09:47:04;;;;;;;2.05;1.90;;;27.50;94.80;;;28.93;45.47;97206.09;5206061;28;20193;-62
2022/06/24 09:49:37;;;;;;;4.30;2.03;;;27.80;93.00;;;28.93;44.59;97208.75;5189361;28;20300;-62
2022/06/24 09:52:11;;;;;;;3.50;2.30;;;27.60;92.60;;;28.48;46.61;97208.16;5191317;28;20623;-62
2022/06/24 09:54:45;;;;;;;5.10;2.22;;;27.20;93.20;;;28.37;46.23;97202.25;5198615;28;20232;-62
2022/06/24 09:57:19;;;;;;;3.05;2.13;;;27.10;93.70;;;28.51;46.86;97205.44;5196196;28;20197;-62
2022/06/24 10:02:44;;;;;;;3.05;2.38;;;27.10;94.50;;;28.31;48.42;97200.66;5200987;28;20318;-62
2022/06/24 10:05:20;;;;;;;3.20;2.22;;;26.90;94.90;;;28.21;48.56;97201.75;5203391;28;20280;-61
2022/06/24 10:07:57;;;;;;;2.60;1.90;;;26.90;95.80;;;28.36;47.59;97206.66;5204867;28;20937;-62
2022/06/24 10:10:34;;;;;;;3.70;2.10;;;27.20;93.60;;;28.47;45.68;97201.16;5197186;28;20586;-62
2022/06/24 10:13:15;;;;;;;2.17;1.95;;;27.20;92.10;;;28.40;45.38;97191.66;5200001;28;20198;-63
2022/06/24 10:15:51;;;;;;;4.85;2.10;;;27.20;92.30;;;28.44;45.49;97193.34;5187733;28;20201;-63
2022/06/24 10:18:32;;;;;;;3.00;2.05;;;27.20;91.90;;;28.12;47.55;97187.06;5199452;28;20273;-61
2022/06/24 10:21:07;;;;;;;4.00;2.10;;;27.20;93.40;;;28.19;47.54;97187.81;5196317;28;20617;-61
2022/06/24 10:23:45;;;;;;;2.50;1.90;;;27.20;93.30;;;28.35;46.82;97186.50;5196712;28;20205;-62
2022/06/24 10:26:25;;;;;;;3.40;2.53;;;27.30;93.00;;;28.18;44.98;97189.53;5197283;28;20725;-61
2022/06/24 10:29:31;;;;;;;2.75;2.15;;;27.20;91.70;;;27.89;46.30;97187.59;5198555;28;20232;-61
2022/06/24 10:32:07;;;;;;;2.38;1.80;;;26.80;92.60;;;28.26;45.89;97184.97;5197666;28;20209;-61
2022/06/24 10:34:46;;;;;;;3.13;2.30;;;27.20;92.20;;;28.27;46.06;97184.09;5202117;28;20620;-61
2022/06/24 10:37:28;;;;;;;3.10;2.15;;;27.30;92.40;;;28.39;45.85;97189.94;5191105;28;20202;-61
2022/06/24 10:40:02;;;;;;;2.90;2.20;;;27.40;92.30;;;28.47;46.91;97185.38;5197343;28;20217;-61
2022/06/24 10:42:36;;;;;;;2.78;2.25;;;27.50;93.40;;;28.72;44.65;97173.31;5204633;28;20263;-63
2022/06/24 10:45:13;;;;;;;3.72;2.08;;;27.70;91.60;;;28.20;47.43;97179.88;5194670;28;20204;-59
2022/06/24 10:47:46;;;;;;;3.20;2.05;;;27.40;92.90;;;28.34;46.13;97181.31;5195041;28;20225;-63
2022/06/24 10:50:21;;;;;;;2.88;2.08;;;27.30;92.80;;;28.39;45.97;97175.03;5202579;28;20248;-60
2022/06/24 10:53:04;;;;;;;3.70;2.08;;;27.20;92.50;;;28.38;46.26;97182.94;5190538;28;20810;-61
2022/06/24 10:55:39;;;;;;;4.57;2.22;;;27.30;92.50;;;28.28;46.20;97179.69;5198179;28;20216;-61
2022/06/24 10:58:18;;;;;;;2.90;1.92;;;27.10;92.40;;;28.22;46.96;97178.06;5189462;28;20235;-61
2022/06/24 11:00:53;;;;;;;2.55;2.17;;;27.10;93.00;;;28.12;46.56;97179.19;5196012;28;20251;-61
2022/06/24 11:03:38;;;;;;;4.55;2.33;;;27.10;92.40;;;28.06;46.34;97171.44;5193492;28;20217;-61